createdAt,value
2018-12-04T00:00:09.068Z,98820.20
2018-12-04T00:05:14.584Z,98826.50
2018-12-04T00:10:18.719Z,98824.34
2018-12-04T00:15:23.140Z,98833.91
2018-12-04T00:20:27.652Z,98830.25
2018-12-04T00:25:31.891Z,98843.30
2018-12-04T00:30:41.023Z,98841.64
2018-12-04T00:35:45.325Z,98848.44
2018-12-04T00:40:49.563Z,98853.31
2018-12-04T00:45:54.031Z,98854.64
2018-12-04T00:50:58.215Z,98855.40
2018-12-04T00:56:02.762Z,98860.25
2018-12-04T01:01:07.515Z,98862.59
2018-12-04T01:06:12.133Z,98870.16
2018-12-04T01:11:16.570Z,98876.88
2018-12-04T01:16:38.248Z,98884.14
2018-12-04T01:21:42.658Z,98892.12
2018-12-04T01:26:47.003Z,98892.48
2018-12-04T01:31:51.416Z,98911.48
2018-12-04T01:36:56.020Z,98906.17
2018-12-04T01:42:00.325Z,98917.33
2018-12-04T01:47:04.569Z,98916.34
2018-12-04T01:52:08.932Z,98929.30
2018-12-04T01:57:13.295Z,98919.88
2018-12-04T02:02:17.922Z,98919.33
2018-12-04T02:07:22.185Z,98931.09
2018-12-04T02:12:27.054Z,98929.76
2018-12-04T02:17:31.398Z,98938.50
2018-12-04T02:22:36.547Z,98942.72
2018-12-04T02:27:40.798Z,98950.78
2018-12-04T02:32:45.667Z,98945.75
2018-12-04T02:37:50.567Z,98952.35
2018-12-04T02:42:54.794Z,98960.86
2018-12-04T02:47:59.394Z,98966.57
2018-12-04T02:53:03.788Z,98968.34
2018-12-04T02:58:08.715Z,98975.72
2018-12-04T03:03:13.570Z,98980.63
2018-12-04T03:08:17.841Z,98991.19
2018-12-04T03:13:22.273Z,99007.86
2018-12-04T03:18:27.018Z,99021.30
2018-12-04T03:23:31.248Z,99023.69
2018-12-04T03:28:35.647Z,99044.48
2018-12-04T03:33:53.459Z,99109.24
2018-12-04T03:38:57.754Z,99116.27
2018-12-04T03:44:03.082Z,99128.11
2018-12-04T03:49:08.556Z,99149.86
2018-12-04T03:54:19.453Z,99161.42
2018-12-04T03:59:24.164Z,99169.41
2018-12-04T04:04:28.332Z,99194.28
2018-12-04T04:09:32.463Z,99211.22
2018-12-04T04:14:38.718Z,99229.11
2018-12-04T04:19:42.906Z,99247.41
2018-12-04T04:24:47.122Z,99266.63
2018-12-04T04:29:51.598Z,99268.11
2018-12-04T04:34:55.944Z,99274.48
2018-12-04T04:40:01.407Z,99283.09
2018-12-04T04:45:06.755Z,99297.77
2018-12-04T04:50:11.161Z,99292.75
2018-12-04T04:55:15.557Z,99317.67
2018-12-04T05:00:21.173Z,99326.83
2018-12-04T05:05:25.716Z,99343.91
2018-12-04T05:10:30.018Z,99369.89
2018-12-04T05:15:35.016Z,99399.20
2018-12-04T05:20:39.233Z,99419.83
2018-12-04T05:25:43.573Z,99437.08
2018-12-04T05:30:47.820Z,99456.58
2018-12-04T05:35:52.185Z,99474.35
2018-12-04T05:40:56.428Z,99497.67
2018-12-04T05:46:01.008Z,99508.63
2018-12-04T05:51:05.958Z,99518.38
2018-12-04T05:56:12.490Z,99532.95
2018-12-04T06:01:17.030Z,99536.59
2018-12-04T06:06:22.106Z,99545.13
2018-12-04T06:11:31.306Z,99563.67
2018-12-04T06:16:35.848Z,99568.45
2018-12-04T06:21:41.319Z,99576.98
2018-12-04T06:26:46.962Z,99588.95
2018-12-04T06:31:57.383Z,99596.64
2018-12-04T06:37:01.757Z,99614.86
2018-12-04T06:42:06.202Z,99648.48
2018-12-04T06:47:10.447Z,99668.15
2018-12-04T06:52:16.228Z,99690.66
2018-12-04T06:57:20.718Z,99706.03
2018-12-04T07:02:25.007Z,99736.05
2018-12-04T07:07:29.193Z,99751.65
2018-12-04T07:12:33.410Z,99768.86
2018-12-04T07:17:47.008Z,99781.37
2018-12-04T07:22:51.746Z,99789.59
2018-12-04T07:27:57.467Z,99801.81
2018-12-04T07:33:12.804Z,99809.25
2018-12-04T07:38:16.973Z,99828.31
2018-12-04T07:43:21.342Z,99842.08
2018-12-04T07:48:26.179Z,99855.81
2018-12-04T07:53:30.452Z,99862.66
2018-12-04T07:58:34.760Z,99880.13
2018-12-04T08:03:39.001Z,99894.22
2018-12-04T08:08:49.049Z,99912.22
2018-12-04T08:13:53.265Z,99920.48
2018-12-04T08:18:57.541Z,99932.55
2018-12-04T08:24:01.939Z,99947.49
2018-12-04T08:29:06.319Z,99958.84
2018-12-04T08:34:11.289Z,99969.11
2018-12-04T08:39:15.625Z,99980.52
2018-12-04T08:44:20.020Z,99991.17
2018-12-04T08:49:24.474Z,100006.80
2018-12-04T08:54:28.841Z,100016.84
2018-12-04T08:59:33.173Z,100028.98
2018-12-04T09:04:37.828Z,100050.98
2018-12-04T09:09:42.105Z,100049.44
2018-12-04T09:14:46.639Z,100062.97
2018-12-04T09:19:51.095Z,100077.28
2018-12-04T09:24:55.631Z,100091.58
2018-12-04T09:30:00.121Z,100100.87
2018-12-04T09:35:04.942Z,100100.06
2018-12-04T09:40:10.903Z,100110.66
2018-12-04T09:45:21.345Z,100114.33
2018-12-04T09:50:25.681Z,100114.25
2018-12-04T09:55:30.047Z,100117.73
2018-12-04T10:00:34.478Z,100122.80
2018-12-04T10:05:39.295Z,100127.30
2018-12-04T10:10:43.908Z,100138.95
2018-12-04T10:15:48.204Z,100141.35
2018-12-04T10:20:52.744Z,100151.14
2018-12-04T10:25:57.024Z,100164.37
2018-12-04T10:31:10.798Z,100165.65
2018-12-04T10:36:15.126Z,100173.33
2018-12-04T10:41:19.480Z,100174.94
2018-12-04T10:46:23.692Z,100182.58
2018-12-04T10:51:32.970Z,100186.28
2018-12-04T10:56:37.163Z,100193.72
2018-12-04T11:01:51.551Z,100205.96
2018-12-04T11:06:55.812Z,100215.28
2018-12-04T11:12:00.028Z,100221.14
2018-12-04T11:17:04.273Z,100227.23
2018-12-04T11:22:08.692Z,100237.55
2018-12-04T11:27:13.002Z,100239.38
2018-12-04T11:32:22.320Z,100250.67
2018-12-04T11:37:26.559Z,100252.41
2018-12-04T11:42:30.862Z,100256.90
2018-12-04T11:47:35.151Z,100260.55
2018-12-04T11:52:39.304Z,100277.16
2018-12-04T11:57:46.273Z,100292.64
2018-12-04T12:02:51.562Z,100292.70
2018-12-04T12:07:55.875Z,100302.48
2018-12-04T12:13:00.370Z,100301.97
2018-12-04T12:18:04.804Z,100312.00
2018-12-04T12:23:09.044Z,100320.98
2018-12-04T12:28:13.562Z,100335.26
2018-12-04T12:33:17.818Z,100348.78
2018-12-04T12:38:24.409Z,100346.92
2018-12-04T12:49:04.112Z,100358.62
2018-12-04T12:54:09.206Z,100373.13
2018-12-04T12:59:13.532Z,100376.31
2018-12-04T13:04:22.924Z,100396.77
2018-12-04T13:09:27.451Z,100404.47
2018-12-04T13:14:32.547Z,100405.28
2018-12-04T13:19:37.994Z,100419.84
2018-12-04T13:24:42.680Z,100428.57
2018-12-04T13:29:47.667Z,100425.66
2018-12-04T13:34:52.107Z,100433.09
2018-12-04T13:39:57.898Z,100435.47
2018-12-04T13:45:02.693Z,100448.98
2018-12-04T13:50:09.632Z,100449.23
2018-12-04T13:55:14.376Z,100458.77
2018-12-04T14:00:18.823Z,100470.17
2018-12-04T14:05:23.548Z,100484.98
2018-12-04T14:10:30.743Z,100485.52
2018-12-04T14:15:35.142Z,100505.64
2018-12-04T14:20:39.370Z,100508.52
2018-12-04T14:25:49.274Z,100522.52
2018-12-04T14:30:55.576Z,100531.47
2018-12-04T14:36:00.578Z,100543.34
2018-12-04T14:41:04.978Z,100557.86
2018-12-04T14:46:10.182Z,100569.47
2018-12-04T14:51:15.611Z,100582.09
2018-12-04T14:56:20.908Z,100592.13
2018-12-04T15:01:25.231Z,100617.98
2018-12-04T15:06:29.842Z,100620.06
2018-12-04T15:11:35.632Z,100636.31
2018-12-04T15:16:40.663Z,100646.32
2018-12-04T15:21:45.364Z,100651.00
2018-12-04T15:26:49.925Z,100663.91
2018-12-04T15:31:54.320Z,100659.39
2018-12-04T15:36:58.595Z,100677.56
2018-12-04T15:42:03.480Z,100685.13
2018-12-04T15:47:08.077Z,100700.73
2018-12-04T15:52:12.357Z,100711.19
2018-12-04T15:57:16.657Z,100708.71
2018-12-04T16:02:20.904Z,100707.39
2018-12-04T16:07:25.167Z,100721.39
2018-12-04T16:12:29.399Z,100741.64
2018-12-04T16:17:33.673Z,100746.08
2018-12-04T16:22:37.991Z,100758.94
2018-12-04T16:27:42.297Z,100771.35
2018-12-04T16:32:46.718Z,100772.39
2018-12-04T16:38:05.011Z,100785.31
2018-12-04T16:43:09.462Z,100797.02
2018-12-04T16:48:13.905Z,100805.51
2018-12-04T16:53:18.244Z,100803.61
2018-12-04T16:58:22.542Z,100820.23
2018-12-04T17:03:27.348Z,100836.47
2018-12-04T17:08:31.871Z,100831.11
2018-12-04T17:13:41.085Z,100838.03
2018-12-04T17:18:45.478Z,100854.08
2018-12-04T17:23:49.899Z,100859.55
2018-12-04T17:28:54.271Z,100869.00
2018-12-04T17:33:58.642Z,100886.98
2018-12-04T17:39:03.406Z,100893.69
2018-12-04T17:44:09.753Z,100897.06
2018-12-04T17:49:14.095Z,100907.52
2018-12-04T17:54:18.591Z,100906.90
2018-12-04T17:59:24.955Z,100916.71
2018-12-04T18:04:29.229Z,100913.28
2018-12-04T18:09:36.017Z,100912.41
2018-12-04T18:14:42.539Z,100915.43
2018-12-04T18:19:46.867Z,100928.33
2018-12-04T18:24:51.255Z,100930.38
2018-12-04T18:29:55.727Z,100939.25
2018-12-04T18:35:01.401Z,100943.02
2018-12-04T18:40:06.910Z,100944.37
2018-12-04T18:45:16.397Z,100948.45
2018-12-04T18:50:20.913Z,100962.03
2018-12-04T18:55:25.171Z,100965.24
2018-12-04T19:00:29.551Z,100969.09
2018-12-04T19:05:34.018Z,100973.38
2018-12-04T19:10:38.724Z,100988.95
2018-12-04T19:15:43.582Z,100989.08
2018-12-04T19:20:47.977Z,100998.03
2018-12-04T19:25:53.263Z,101008.24
2018-12-04T19:31:02.739Z,101014.45
2018-12-04T19:36:04.639Z,101024.31
2018-12-04T19:41:09.119Z,101022.25
2018-12-04T19:46:13.661Z,101024.30
2018-12-04T19:51:18.961Z,101030.88
2018-12-04T19:56:24.143Z,101020.11
2018-12-04T20:01:33.576Z,101035.17
2018-12-04T20:06:38.764Z,101038.22
2018-12-04T20:11:44.214Z,101046.27
2018-12-04T20:16:48.558Z,101056.92
2018-12-04T20:21:53.156Z,101074.91
2018-12-04T20:26:57.638Z,101088.43
2018-12-04T20:32:09.103Z,101092.14
2018-12-04T20:37:13.595Z,101107.73
2018-12-04T20:42:23.198Z,101114.69
2018-12-04T20:47:24.354Z,101122.23
2018-12-04T20:52:28.825Z,101130.62
2018-12-04T20:57:33.134Z,101144.45
2018-12-04T21:02:37.327Z,101152.61
2018-12-04T21:07:42.022Z,101150.65
2018-12-04T21:12:46.483Z,101151.59
2018-12-04T21:17:50.948Z,101153.20
2018-12-04T21:22:56.463Z,101154.97
2018-12-04T21:28:06.713Z,101157.38
2018-12-04T21:33:16.515Z,101168.13
2018-12-04T21:38:26.038Z,101173.58
2018-12-04T21:43:35.537Z,101180.98
2018-12-04T21:48:40.917Z,101191.59
2018-12-04T21:53:45.670Z,101196.28
2018-12-04T21:58:50.245Z,101202.94
2018-12-04T22:03:57.633Z,101210.23
2018-12-04T22:09:02.067Z,101217.97
2018-12-04T22:19:23.967Z,101228.18
2018-12-04T22:24:28.723Z,101233.14
2018-12-04T22:29:41.046Z,101231.27
2018-12-04T22:34:45.461Z,101228.34
2018-12-04T22:39:50.197Z,101228.97
2018-12-04T22:44:59.359Z,101228.34
2018-12-04T22:50:03.973Z,101229.50
2018-12-04T22:55:08.186Z,101228.12
2018-12-04T23:00:22.087Z,101230.66
2018-12-04T23:05:28.372Z,101225.16
2018-12-04T23:10:38.404Z,101236.67
2018-12-04T23:15:42.731Z,101242.83
2018-12-04T23:20:47.023Z,101226.31
2018-12-04T23:25:55.607Z,101234.56
2018-12-04T23:30:59.945Z,101230.23
2018-12-04T23:36:04.230Z,101234.09
2018-12-04T23:41:08.534Z,101231.25
2018-12-04T23:46:13.879Z,101235.02
2018-12-04T23:51:18.271Z,101240.14
2018-12-04T23:56:24.639Z,101243.92
